createdAt,value
2023-05-05T00:02:20.911Z,12.05
2023-05-05T00:04:48.814Z,12.40
2023-05-05T00:07:16.684Z,11.68
2023-05-05T00:09:44.655Z,14.05
2023-05-05T00:12:12.512Z,12.53
2023-05-05T00:14:40.371Z,13.50
2023-05-05T00:17:09.776Z,12.40
2023-05-05T00:19:37.968Z,12.52
2023-05-05T00:22:05.989Z,13.35
2023-05-05T00:24:33.933Z,12.57
2023-05-05T00:27:02.160Z,11.20
2023-05-05T00:29:30.116Z,9.70
2023-05-05T00:31:58.009Z,8.45
2023-05-05T00:34:27.256Z,9.15
2023-05-05T00:36:55.203Z,7.40
2023-05-05T00:39:23.050Z,6.70
2023-05-05T00:41:50.964Z,7.40
2023-05-05T00:44:18.890Z,6.82
2023-05-05T00:46:46.933Z,5.40
2023-05-05T00:49:14.885Z,5.15
2023-05-05T00:51:44.166Z,5.47
2023-05-05T00:54:12.128Z,5.18
2023-05-05T00:56:40.287Z,4.88
2023-05-05T00:59:08.205Z,4.35
2023-05-05T01:01:36.187Z,4.47
2023-05-05T01:04:04.187Z,3.97
2023-05-05T01:06:42.901Z,4.50
2023-05-05T01:09:21.085Z,4.60
2023-05-05T01:11:57.692Z,4.03
2023-05-05T01:14:33.570Z,3.50
2023-05-05T01:17:11.254Z,3.70
2023-05-05T01:20:03.965Z,3.60
2023-05-05T01:22:38.873Z,3.50
2023-05-05T01:25:38.121Z,3.53
2023-05-05T01:28:28.974Z,3.30
2023-05-05T01:31:29.356Z,3.00
2023-05-05T01:34:04.598Z,2.97
2023-05-05T01:36:37.916Z,2.77
2023-05-05T01:39:08.209Z,3.22
2023-05-05T01:41:42.638Z,2.90
2023-05-05T01:44:12.575Z,2.72
2023-05-05T01:46:40.561Z,2.63
2023-05-05T01:49:10.981Z,2.30
2023-05-05T01:51:40.459Z,2.55
2023-05-05T01:54:09.716Z,2.22
2023-05-05T01:56:41.000Z,2.70
2023-05-05T01:59:09.940Z,2.40
2023-05-05T02:01:44.593Z,2.60
2023-05-05T02:04:15.979Z,2.40
2023-05-05T02:06:47.549Z,2.70
2023-05-05T02:09:16.222Z,3.00
2023-05-05T02:11:44.335Z,3.20
2023-05-05T02:14:13.472Z,2.47
2023-05-05T02:16:43.380Z,2.70
2023-05-05T02:19:13.398Z,2.05
2023-05-05T02:21:41.992Z,2.30
2023-05-05T02:24:10.272Z,2.60
2023-05-05T02:26:40.841Z,2.20
2023-05-05T02:29:11.533Z,2.25
2023-05-05T02:31:46.338Z,2.50
2023-05-05T02:34:20.118Z,2.57
2023-05-05T02:36:52.535Z,2.28
2023-05-05T02:39:31.706Z,3.00
2023-05-05T02:42:02.991Z,3.30
2023-05-05T02:44:34.019Z,4.00
2023-05-05T02:47:04.751Z,3.20
2023-05-05T02:49:33.987Z,3.03
2023-05-05T02:52:02.039Z,2.30
2023-05-05T02:54:30.137Z,2.65
2023-05-05T02:56:58.923Z,3.20
2023-05-05T02:59:34.476Z,2.80
2023-05-05T03:02:15.581Z,2.83
2023-05-05T03:04:50.208Z,2.97
2023-05-05T03:07:26.331Z,2.90
2023-05-05T03:10:00.040Z,2.50
2023-05-05T03:12:34.923Z,3.35
2023-05-05T03:15:04.167Z,4.00
2023-05-05T03:17:33.583Z,3.97
2023-05-05T03:20:04.189Z,4.40
2023-05-05T03:22:32.318Z,4.10
2023-05-05T03:25:00.184Z,3.80
2023-05-05T03:27:28.091Z,3.70
2023-05-05T03:29:56.496Z,3.40
2023-05-05T03:32:24.860Z,3.58
2023-05-05T03:34:52.762Z,3.10
2023-05-05T03:37:22.018Z,3.10
2023-05-05T03:39:49.984Z,3.20
2023-05-05T03:42:17.847Z,3.33
2023-05-05T03:44:45.729Z,3.80
2023-05-05T03:47:13.669Z,3.60
2023-05-05T03:49:41.626Z,4.30
2023-05-05T03:52:09.605Z,4.00
2023-05-05T03:54:38.879Z,3.60
2023-05-05T03:57:07.027Z,3.90
2023-05-05T03:59:34.886Z,4.10
2023-05-05T04:02:02.888Z,4.15
2023-05-05T04:04:30.807Z,4.10
2023-05-05T04:06:58.774Z,4.05
2023-05-05T04:09:26.641Z,4.57
2023-05-05T04:11:56.148Z,4.38
2023-05-05T04:14:24.099Z,5.20
2023-05-05T04:16:51.987Z,5.68
2023-05-05T04:19:19.897Z,5.70
2023-05-05T04:21:47.821Z,6.03
2023-05-05T04:24:15.747Z,6.30
2023-05-05T04:26:43.674Z,5.80
2023-05-05T04:29:12.874Z,5.82
2023-05-05T04:31:40.715Z,6.30
2023-05-05T04:34:08.953Z,6.70
2023-05-05T04:36:36.865Z,6.28
2023-05-05T04:39:06.882Z,6.10
2023-05-05T04:41:34.986Z,6.30
2023-05-05T04:44:02.856Z,7.47
2023-05-05T04:46:32.170Z,6.60
2023-05-05T04:49:00.169Z,6.90
2023-05-05T04:51:28.259Z,6.60
2023-05-05T04:53:56.250Z,6.90
2023-05-05T04:56:24.244Z,6.72
2023-05-05T04:58:52.228Z,7.20
2023-05-05T05:01:20.187Z,6.85
2023-05-05T05:03:49.458Z,6.80
2023-05-05T05:06:17.536Z,7.20
2023-05-05T05:08:45.634Z,7.20
2023-05-05T05:11:15.501Z,7.55
2023-05-05T05:13:43.489Z,7.70
2023-05-05T05:16:11.495Z,9.48
2023-05-05T05:18:39.696Z,11.20
2023-05-05T05:21:09.183Z,10.73
2023-05-05T05:23:37.103Z,10.05
2023-05-05T05:26:06.457Z,9.63
2023-05-05T05:28:34.410Z,11.85
2023-05-05T05:31:02.353Z,12.63
2023-05-05T05:33:30.244Z,12.82
2023-05-05T05:35:58.170Z,12.05
2023-05-05T05:38:27.511Z,12.13
2023-05-05T05:40:55.567Z,12.27
2023-05-05T05:43:23.513Z,13.07
2023-05-05T05:45:51.997Z,12.53
2023-05-05T05:48:21.453Z,11.65
2023-05-05T05:50:49.352Z,11.70
2023-05-05T05:53:17.913Z,11.88
2023-05-05T05:55:48.612Z,12.35
2023-05-05T05:58:18.442Z,13.00
2023-05-05T06:00:46.575Z,13.60
2023-05-05T06:03:14.805Z,13.63
2023-05-05T06:05:42.909Z,15.90
2023-05-05T06:08:10.760Z,14.98
2023-05-05T06:10:39.764Z,15.15
2023-05-05T06:13:09.013Z,14.85
2023-05-05T06:15:36.869Z,16.45
2023-05-05T06:18:04.982Z,14.20
2023-05-05T06:20:33.017Z,14.00
2023-05-05T06:23:01.670Z,13.70
2023-05-05T06:25:29.513Z,13.85
2023-05-05T06:27:57.460Z,13.43
2023-05-05T06:30:27.202Z,12.95
2023-05-05T06:32:55.282Z,13.38
2023-05-05T06:35:23.269Z,13.60
2023-05-05T06:37:51.349Z,13.50
2023-05-05T06:40:19.415Z,13.18
2023-05-05T06:42:47.302Z,13.13
2023-05-05T06:45:15.443Z,13.68
2023-05-05T06:47:44.906Z,12.63
2023-05-05T06:50:13.096Z,12.68
2023-05-05T06:52:41.082Z,13.32
2023-05-05T06:55:09.958Z,12.80
2023-05-05T06:57:37.865Z,12.60
2023-05-05T07:00:09.735Z,12.30
2023-05-05T07:02:37.948Z,12.43
2023-05-05T07:05:07.905Z,11.82
2023-05-05T07:07:36.564Z,12.10
2023-05-05T07:10:04.603Z,12.70
2023-05-05T07:12:32.613Z,12.07
2023-05-05T07:15:03.178Z,11.50
2023-05-05T07:17:37.404Z,12.10
2023-05-05T07:20:07.789Z,11.68
2023-05-05T07:22:35.951Z,11.02
2023-05-05T07:25:04.616Z,10.20
2023-05-05T07:27:32.839Z,10.17
2023-05-05T07:30:01.232Z,9.60
2023-05-05T07:32:29.254Z,9.98
2023-05-05T07:34:57.184Z,9.40
2023-05-05T07:37:26.749Z,8.57
2023-05-05T07:39:54.645Z,7.80
2023-05-05T07:42:22.555Z,8.50
2023-05-05T07:44:50.490Z,8.30
2023-05-05T07:47:18.424Z,7.67
2023-05-05T07:49:46.306Z,7.63
2023-05-05T07:52:14.239Z,8.15
2023-05-05T07:54:45.237Z,8.00
2023-05-05T07:57:13.181Z,7.95
2023-05-05T07:59:43.390Z,7.10
2023-05-05T08:02:12.672Z,7.30
2023-05-05T08:04:40.677Z,6.65
2023-05-05T08:07:09.142Z,7.05
2023-05-05T08:09:37.154Z,7.10
2023-05-05T08:12:06.727Z,7.30
2023-05-05T08:14:34.824Z,7.45
2023-05-05T08:17:02.780Z,6.70
2023-05-05T08:19:30.658Z,7.00
2023-05-05T08:22:00.103Z,6.53
2023-05-05T08:24:29.179Z,6.00
2023-05-05T08:26:57.599Z,4.80
2023-05-05T08:29:27.172Z,5.00
2023-05-05T08:31:55.348Z,5.20
2023-05-05T08:34:23.226Z,5.00
2023-05-05T08:36:51.221Z,5.47
2023-05-05T08:39:19.130Z,5.30
2023-05-05T08:41:47.069Z,5.65
2023-05-05T08:44:14.956Z,5.30
2023-05-05T08:46:44.283Z,5.13
2023-05-05T08:49:16.496Z,5.75
2023-05-05T08:51:45.444Z,5.40
2023-05-05T08:54:18.788Z,5.30
2023-05-05T08:56:50.637Z,5.30
2023-05-05T08:59:19.866Z,5.35
2023-05-05T09:01:49.685Z,6.10
2023-05-05T09:04:19.099Z,5.45
2023-05-05T09:06:47.121Z,5.50
2023-05-05T09:09:15.519Z,5.53
2023-05-05T09:11:44.588Z,5.30
2023-05-05T09:14:12.965Z,5.25
2023-05-05T09:16:44.311Z,5.75
2023-05-05T09:19:13.712Z,5.60
2023-05-05T09:21:48.585Z,5.67
2023-05-05T09:24:16.580Z,5.28
2023-05-05T09:26:45.839Z,5.18
2023-05-05T09:29:19.538Z,5.40
2023-05-05T09:32:05.392Z,4.50
2023-05-05T09:34:36.574Z,3.83
2023-05-05T09:37:04.582Z,4.30
2023-05-05T09:39:32.545Z,4.53
2023-05-05T09:42:00.526Z,4.30
2023-05-05T09:44:35.924Z,4.47
2023-05-05T09:47:07.352Z,4.30
2023-05-05T09:49:39.504Z,4.10
2023-05-05T09:52:15.521Z,4.25
2023-05-05T09:54:44.161Z,4.45
2023-05-05T09:57:27.239Z,4.40
2023-05-05T09:59:59.230Z,4.50
2023-05-05T10:02:34.250Z,4.90
2023-05-05T10:05:11.450Z,4.15
2023-05-05T10:07:41.025Z,3.20
2023-05-05T10:10:10.770Z,2.87
2023-05-05T10:12:39.874Z,2.60
2023-05-05T10:15:09.825Z,2.58
2023-05-05T10:17:50.806Z,2.40
2023-05-05T10:20:28.188Z,1.70
2023-05-05T10:22:57.907Z,1.80
2023-05-05T10:25:31.443Z,1.92
2023-05-05T10:28:06.071Z,1.70
2023-05-05T10:30:38.024Z,1.87
2023-05-05T10:33:30.833Z,1.83
2023-05-05T10:36:05.275Z,1.65
2023-05-05T10:38:33.671Z,2.10
2023-05-05T10:41:02.864Z,2.42
2023-05-05T10:43:31.974Z,2.22
2023-05-05T10:46:00.898Z,2.60
2023-05-05T10:48:35.501Z,2.28
2023-05-05T10:51:18.869Z,2.40
2023-05-05T10:53:59.663Z,2.40
2023-05-05T10:56:32.585Z,2.20
2023-05-05T10:59:00.925Z,2.60
2023-05-05T11:01:36.973Z,2.80
2023-05-05T11:04:22.023Z,3.22
2023-05-05T11:07:26.971Z,2.60
2023-05-05T11:09:56.675Z,2.55
2023-05-05T11:12:24.824Z,2.60
2023-05-05T11:15:30.381Z,2.75
2023-05-05T11:17:59.508Z,4.00
2023-05-05T11:21:04.877Z,4.60
2023-05-05T11:23:34.557Z,5.55
2023-05-05T11:26:02.733Z,5.30
2023-05-05T11:28:31.955Z,4.30
2023-05-05T11:31:19.888Z,4.22
2023-05-05T11:33:47.964Z,3.53
2023-05-05T11:36:17.801Z,3.40
2023-05-05T11:39:08.954Z,3.80
2023-05-05T11:42:08.111Z,5.25
2023-05-05T11:44:38.396Z,5.63
2023-05-05T11:47:32.217Z,5.97
2023-05-05T11:50:15.600Z,5.75
2023-05-05T11:52:43.597Z,6.30
2023-05-05T11:55:13.080Z,5.53
2023-05-05T11:57:41.021Z,5.53
2023-05-05T12:00:10.274Z,5.68
2023-05-05T12:02:38.484Z,5.30
2023-05-05T12:05:07.402Z,4.78
2023-05-05T12:07:35.344Z,4.37
2023-05-05T12:10:03.297Z,3.80
2023-05-05T12:12:40.974Z,4.05
2023-05-05T12:15:10.383Z,4.22
2023-05-05T12:17:44.933Z,4.20
2023-05-05T12:20:13.751Z,4.95
2023-05-05T12:22:42.333Z,5.37
2023-05-05T12:25:11.505Z,4.50
2023-05-05T12:27:41.562Z,4.50
2023-05-05T12:30:14.997Z,4.50
2023-05-05T12:32:44.537Z,4.30
2023-05-05T12:35:13.276Z,3.75
2023-05-05T12:37:41.600Z,3.40
2023-05-05T12:40:49.037Z,3.15
2023-05-05T12:43:32.739Z,3.33
2023-05-05T12:46:05.910Z,4.00
2023-05-05T12:48:34.162Z,4.10
2023-05-05T12:51:16.040Z,3.92
2023-05-05T12:53:44.270Z,4.10
2023-05-05T12:56:30.481Z,3.50
2023-05-05T12:59:00.089Z,3.40
2023-05-05T13:01:28.273Z,3.60
2023-05-05T13:04:07.085Z,3.57
2023-05-05T13:06:36.043Z,2.60
2023-05-05T13:09:04.330Z,2.50
2023-05-05T13:11:35.291Z,2.53
2023-05-05T13:14:04.709Z,2.53
2023-05-05T13:16:33.217Z,2.75
2023-05-05T13:19:01.108Z,2.80
2023-05-05T13:21:29.093Z,2.80
2023-05-05T13:24:05.044Z,3.05
2023-05-05T13:26:45.015Z,3.45
2023-05-05T13:29:14.295Z,3.50
2023-05-05T13:31:42.366Z,2.80
2023-05-05T13:34:10.339Z,2.88
2023-05-05T13:36:38.212Z,2.90
2023-05-05T13:39:06.069Z,2.37
2023-05-05T13:41:33.948Z,2.03
2023-05-05T13:44:01.907Z,2.00
2023-05-05T13:47:18.350Z,1.77
2023-05-05T13:49:46.676Z,2.00
2023-05-05T13:52:14.971Z,2.40
2023-05-05T13:54:43.213Z,2.03
2023-05-05T13:57:11.995Z,2.90
2023-05-05T13:59:39.842Z,2.65
2023-05-05T14:02:07.903Z,2.95
2023-05-05T14:04:37.491Z,2.80
2023-05-05T14:07:05.412Z,3.40
2023-05-05T14:09:33.320Z,2.63
2023-05-05T14:12:01.247Z,3.22
2023-05-05T14:14:29.505Z,2.70
2023-05-05T14:16:57.477Z,2.90
2023-05-05T14:19:25.504Z,2.80
2023-05-05T14:21:54.869Z,2.53
2023-05-05T14:24:22.785Z,2.67
2023-05-05T14:26:50.707Z,3.00
2023-05-05T14:29:18.656Z,2.78
2023-05-05T14:31:46.598Z,2.72
2023-05-05T14:34:14.491Z,2.70
2023-05-05T14:36:42.425Z,2.70
2023-05-05T14:39:11.718Z,2.58
2023-05-05T14:41:39.742Z,2.38
2023-05-05T14:44:07.606Z,2.42
2023-05-05T14:46:35.516Z,2.10
2023-05-05T14:49:03.428Z,2.25
2023-05-05T14:51:31.464Z,2.40
2023-05-05T14:53:59.583Z,2.10
2023-05-05T14:56:28.898Z,2.53
2023-05-05T14:58:56.808Z,2.20
2023-05-05T15:01:25.775Z,4.30
2023-05-05T15:03:53.941Z,2.20
2023-05-05T15:06:22.048Z,2.53
2023-05-05T15:08:50.007Z,1.95
2023-05-05T15:11:18.033Z,1.90
2023-05-05T15:13:47.574Z,1.98
2023-05-05T15:16:15.549Z,1.90
2023-05-05T15:18:43.470Z,1.90
2023-05-05T15:21:11.488Z,2.20
2023-05-05T15:23:39.487Z,1.80
2023-05-05T15:26:07.343Z,1.90
2023-05-05T15:28:35.279Z,1.70
2023-05-05T15:31:05.919Z,2.22
2023-05-05T15:33:33.861Z,2.30
2023-05-05T15:36:02.059Z,1.90
2023-05-05T15:38:31.232Z,2.35
2023-05-05T15:40:59.734Z,2.60
2023-05-05T15:43:27.736Z,2.20
2023-05-05T15:45:55.613Z,2.50
2023-05-05T15:48:24.851Z,2.72
2023-05-05T15:50:52.730Z,2.33
2023-05-05T15:53:20.640Z,3.00
2023-05-05T15:55:48.583Z,3.00
2023-05-05T15:58:16.512Z,3.55
2023-05-05T16:00:44.427Z,4.20
2023-05-05T16:03:12.539Z,3.58
2023-05-05T16:05:42.428Z,3.97
2023-05-05T16:08:10.875Z,3.58
2023-05-05T16:10:38.759Z,3.30
2023-05-05T16:13:07.026Z,3.30
2023-05-05T16:15:35.629Z,3.67
2023-05-05T16:18:03.585Z,3.58
2023-05-05T16:20:31.508Z,3.60
2023-05-05T16:23:00.750Z,3.50
2023-05-05T16:25:28.635Z,3.65
2023-05-05T16:27:57.671Z,3.80
2023-05-05T16:30:25.952Z,4.00
2023-05-05T16:32:54.595Z,4.20
2023-05-05T16:35:23.193Z,3.70
2023-05-05T16:37:51.187Z,4.28
2023-05-05T16:40:20.561Z,4.40
2023-05-05T16:42:48.500Z,4.90
2023-05-05T16:45:16.420Z,4.75
2023-05-05T16:47:44.387Z,4.70
2023-05-05T16:50:12.577Z,4.97
2023-05-05T16:52:40.530Z,5.88
2023-05-05T16:55:09.325Z,5.72
2023-05-05T16:57:38.898Z,5.88
2023-05-05T17:00:08.071Z,6.78
2023-05-05T17:02:36.290Z,6.40
2023-05-05T17:05:04.341Z,6.50
2023-05-05T17:07:32.630Z,7.25
2023-05-05T17:10:00.576Z,7.70
2023-05-05T17:12:28.467Z,8.18
2023-05-05T17:14:57.634Z,7.43
2023-05-05T17:17:25.636Z,7.93
2023-05-05T17:19:53.584Z,7.68
2023-05-05T17:22:21.812Z,8.00
2023-05-05T17:24:49.798Z,8.43
2023-05-05T17:27:17.779Z,7.57
2023-05-05T17:29:45.654Z,7.53
2023-05-05T17:32:14.916Z,7.78
2023-05-05T17:34:42.777Z,8.07
2023-05-05T17:37:11.034Z,8.82
2023-05-05T17:39:38.948Z,8.60
2023-05-05T17:42:06.921Z,9.40
2023-05-05T17:44:34.771Z,8.73
2023-05-05T17:47:03.910Z,9.02
2023-05-05T17:49:33.193Z,8.60
2023-05-05T17:52:01.051Z,8.82
2023-05-05T17:54:28.937Z,8.50
2023-05-05T17:56:57.390Z,8.80
2023-05-05T17:59:25.311Z,8.88
2023-05-05T18:01:53.250Z,8.80
2023-05-05T18:04:21.175Z,8.43
2023-05-05T18:06:50.490Z,9.02
2023-05-05T18:09:20.701Z,10.15
2023-05-05T18:11:48.663Z,8.13
2023-05-05T18:14:17.666Z,8.60
2023-05-05T18:16:49.600Z,8.55
2023-05-05T18:19:17.995Z,8.20
2023-05-05T18:21:45.922Z,8.80
2023-05-05T18:24:20.457Z,7.82
2023-05-05T18:26:50.481Z,8.75
2023-05-05T18:29:19.811Z,8.32
2023-05-05T18:31:51.431Z,7.63
2023-05-05T18:34:20.416Z,8.50
2023-05-05T18:36:49.182Z,9.00
2023-05-05T18:39:18.461Z,8.53
2023-05-05T18:41:46.525Z,9.32
2023-05-05T18:44:14.485Z,9.80
2023-05-05T18:46:43.118Z,9.32
2023-05-05T18:49:11.099Z,10.20
2023-05-05T18:51:38.982Z,8.80
2023-05-05T18:54:06.949Z,8.90
2023-05-05T18:56:36.376Z,8.40
2023-05-05T18:59:04.790Z,8.30
2023-05-05T19:01:32.829Z,9.00
2023-05-05T19:04:00.854Z,9.73
2023-05-05T19:06:28.837Z,9.30
2023-05-05T19:08:57.013Z,10.33
2023-05-05T19:11:25.426Z,11.07
2023-05-05T19:13:54.719Z,10.68
2023-05-05T19:16:22.739Z,9.85
2023-05-05T19:18:50.664Z,9.23
2023-05-05T19:21:18.538Z,9.18
2023-05-05T19:23:46.413Z,9.90
2023-05-05T19:26:15.093Z,9.10
2023-05-05T19:28:42.981Z,9.30
2023-05-05T19:31:12.284Z,9.70
2023-05-05T19:33:44.800Z,9.18
2023-05-05T19:36:13.230Z,9.68
2023-05-05T19:38:44.240Z,9.57
2023-05-05T19:41:12.622Z,9.25
2023-05-05T19:43:40.487Z,9.80
2023-05-05T19:46:08.410Z,9.40
2023-05-05T19:48:37.843Z,10.43
2023-05-05T19:51:06.153Z,9.90
2023-05-05T19:53:34.109Z,9.80
2023-05-05T19:56:02.079Z,9.25
2023-05-05T19:58:29.912Z,9.70
2023-05-05T20:00:57.825Z,9.63
2023-05-05T20:03:26.285Z,9.82
2023-05-05T20:05:55.741Z,10.10
2023-05-05T20:08:23.682Z,9.95
2023-05-05T20:10:51.581Z,10.05
2023-05-05T20:13:19.619Z,9.60
2023-05-05T20:15:47.777Z,9.63
2023-05-05T20:18:15.661Z,10.32
2023-05-05T20:20:43.518Z,9.73
2023-05-05T20:23:13.113Z,9.27
2023-05-05T20:25:41.324Z,8.77
2023-05-05T20:28:09.179Z,8.60
2023-05-05T20:30:37.047Z,8.00
2023-05-05T20:33:05.123Z,7.50
2023-05-05T20:35:33.004Z,7.00
2023-05-05T20:38:00.912Z,6.95
2023-05-05T20:40:30.356Z,7.40
2023-05-05T20:42:58.534Z,7.15
2023-05-05T20:45:26.731Z,7.30
2023-05-05T20:47:54.697Z,7.60
2023-05-05T20:50:22.631Z,7.35
2023-05-05T20:52:50.541Z,7.30
2023-05-05T20:55:18.523Z,8.10
2023-05-05T20:57:47.705Z,7.88
2023-05-05T21:00:15.959Z,8.68
2023-05-05T21:02:44.019Z,7.93
2023-05-05T21:05:11.958Z,8.38
2023-05-05T21:07:39.889Z,8.63
2023-05-05T21:10:09.167Z,9.07
2023-05-05T21:12:37.510Z,9.05
2023-05-05T21:15:08.292Z,13.90
2023-05-05T21:17:36.503Z,9.60
2023-05-05T21:20:05.187Z,9.07
2023-05-05T21:22:33.071Z,9.60
2023-05-05T21:25:11.263Z,10.55
2023-05-05T21:27:39.231Z,9.90
2023-05-05T21:30:11.148Z,9.40
2023-05-05T21:32:39.706Z,10.00
2023-05-05T21:35:09.104Z,9.90
2023-05-05T21:37:39.450Z,10.35
2023-05-05T21:40:10.827Z,11.00
2023-05-05T21:42:39.035Z,10.07
2023-05-05T21:45:09.794Z,10.40
2023-05-05T21:47:37.833Z,10.23
2023-05-05T21:50:06.397Z,11.02
2023-05-05T21:52:34.589Z,11.20
2023-05-05T21:55:02.528Z,10.73
2023-05-05T21:57:30.408Z,10.60
2023-05-05T21:59:58.410Z,10.90
2023-05-05T22:02:27.703Z,10.52
2023-05-05T22:04:55.703Z,10.57
2023-05-05T22:07:24.920Z,11.32
2023-05-05T22:09:53.583Z,10.40
2023-05-05T22:12:21.517Z,10.07
2023-05-05T22:14:49.438Z,9.70
2023-05-05T22:17:17.347Z,9.10
2023-05-05T22:19:46.596Z,8.93
2023-05-05T22:22:15.898Z,8.80
2023-05-05T22:24:43.740Z,9.65
2023-05-05T22:27:11.843Z,8.60
2023-05-05T22:29:39.889Z,8.48
2023-05-05T22:32:07.796Z,9.35
2023-05-05T22:34:36.219Z,8.73
2023-05-05T22:37:05.469Z,9.10
2023-05-05T22:39:33.581Z,8.10
2023-05-05T22:42:01.742Z,8.70
2023-05-05T22:44:29.661Z,8.20
2023-05-05T22:46:57.617Z,7.93
2023-05-05T22:49:26.413Z,8.00
2023-05-05T22:51:54.675Z,7.80
2023-05-05T22:54:23.949Z,8.25
2023-05-05T22:56:51.900Z,8.20
2023-05-05T22:59:19.748Z,8.15
2023-05-05T23:01:47.659Z,8.10
2023-05-05T23:04:15.743Z,8.15
2023-05-05T23:06:44.872Z,8.07
2023-05-05T23:09:12.852Z,8.30
2023-05-05T23:11:42.144Z,7.65
2023-05-05T23:14:10.129Z,7.57
2023-05-05T23:16:38.061Z,8.27
2023-05-05T23:19:05.959Z,7.78
2023-05-05T23:21:38.925Z,8.05
2023-05-05T23:24:13.629Z,8.00
2023-05-05T23:26:42.851Z,8.53
2023-05-05T23:29:11.042Z,8.25
2023-05-05T23:31:38.955Z,8.80
2023-05-05T23:34:06.866Z,9.00
2023-05-05T23:36:34.785Z,9.68
2023-05-05T23:39:02.634Z,9.00
2023-05-05T23:41:30.578Z,8.25
2023-05-05T23:43:59.832Z,8.60
2023-05-05T23:46:27.821Z,8.60
2023-05-05T23:48:55.711Z,8.75
2023-05-05T23:51:23.893Z,8.98
2023-05-05T23:53:51.754Z,8.20
2023-05-05T23:56:19.818Z,8.30
2023-05-05T23:58:47.687Z,8.10
